createdAt,value
2023-01-07T00:01:08.330Z,97290.38
2023-01-07T00:03:35.229Z,97297.91
2023-01-07T00:06:07.952Z,97293.56
2023-01-07T00:08:36.663Z,97287.53
2023-01-07T00:11:08.246Z,97292.66
2023-01-07T00:13:34.865Z,97288.31
2023-01-07T00:16:03.996Z,97285.75
2023-01-07T00:18:30.900Z,97281.53
2023-01-07T00:20:58.526Z,97287.44
2023-01-07T00:23:26.135Z,97283.00
2023-01-07T00:25:58.845Z,97283.75
2023-01-07T00:28:25.185Z,97281.19
2023-01-07T00:30:52.792Z,97287.19
2023-01-07T00:33:21.002Z,97281.31
2023-01-07T00:35:47.340Z,97283.00
2023-01-07T00:38:13.890Z,97280.44
2023-01-07T00:40:40.261Z,97279.53
2023-01-07T00:43:06.954Z,97273.56
2023-01-07T00:45:35.840Z,97270.25
2023-01-07T00:48:04.169Z,97265.09
2023-01-07T00:50:33.553Z,97266.78
2023-01-07T00:53:00.278Z,97276.06
2023-01-07T00:55:27.558Z,97277.69
2023-01-07T00:57:54.120Z,97279.25
2023-01-07T01:00:22.776Z,97269.59
2023-01-07T01:02:49.861Z,97262.81
2023-01-07T01:05:16.686Z,97260.25
2023-01-07T01:07:43.724Z,97262.75
2023-01-07T01:10:12.726Z,97263.69
2023-01-07T01:12:40.503Z,97266.19
2023-01-07T01:15:10.832Z,97261.72
2023-01-07T01:17:37.505Z,97268.56
2023-01-07T01:20:04.792Z,97267.63
2023-01-07T01:22:31.171Z,97276.03
2023-01-07T01:24:57.517Z,97269.25
2023-01-07T01:27:24.450Z,97271.75
2023-01-07T01:29:50.803Z,97267.25
2023-01-07T01:32:17.534Z,97264.53
2023-01-07T01:34:43.982Z,97263.56
2023-01-07T01:37:10.427Z,97271.22
2023-01-07T01:39:36.854Z,97271.13
2023-01-07T01:42:03.301Z,97271.13
2023-01-07T01:44:55.237Z,97278.66
2023-01-07T01:47:21.684Z,97261.47
2023-01-07T01:49:56.289Z,97273.41
2023-01-07T01:52:28.369Z,97262.38
2023-01-07T01:54:58.798Z,97263.31
2023-01-07T01:57:28.965Z,97268.50
2023-01-07T01:59:56.978Z,97255.00
2023-01-07T02:02:34.332Z,97258.47
2023-01-07T02:05:02.183Z,97249.09
2023-01-07T02:07:28.692Z,97254.38
2023-01-07T02:10:00.195Z,97259.50
2023-01-07T02:12:51.408Z,97257.84
2023-01-07T02:15:35.739Z,97261.28
2023-01-07T02:18:19.516Z,97248.56
2023-01-07T02:21:27.628Z,97249.56
2023-01-07T02:24:21.871Z,97236.84
2023-01-07T02:27:00.284Z,97237.72
2023-01-07T02:29:45.449Z,97235.97
2023-01-07T02:32:30.595Z,97238.56
2023-01-07T02:35:14.685Z,97227.47
2023-01-07T02:38:01.380Z,97230.88
2023-01-07T02:40:49.563Z,97221.50
2023-01-07T02:43:27.419Z,97221.47
2023-01-07T02:46:03.353Z,97219.84
2023-01-07T02:48:31.390Z,97219.88
2023-01-07T02:50:57.730Z,97221.50
2023-01-07T02:53:24.224Z,97223.28
2023-01-07T02:56:03.277Z,97220.75
2023-01-07T02:58:48.725Z,97214.78
2023-01-07T03:01:25.518Z,97217.41
2023-01-07T03:04:14.455Z,97212.31
2023-01-07T03:06:54.270Z,97213.06
2023-01-07T03:09:41.831Z,97207.06
2023-01-07T03:12:24.409Z,97200.19
2023-01-07T03:14:53.988Z,97203.53
2023-01-07T03:17:28.337Z,97196.75
2023-01-07T03:20:00.531Z,97203.59
2023-01-07T03:22:29.939Z,97199.31
2023-01-07T03:24:57.994Z,97194.22
2023-01-07T03:27:27.752Z,97190.00
2023-01-07T03:29:56.005Z,97190.13
2023-01-07T03:32:38.951Z,97176.59
2023-01-07T03:35:05.940Z,97177.56
2023-01-07T03:37:34.012Z,97176.00
2023-01-07T03:40:03.220Z,97173.44
2023-01-07T03:42:40.193Z,97170.09
2023-01-07T03:45:13.257Z,97165.81
2023-01-07T03:47:44.414Z,97170.91
2023-01-07T03:50:10.773Z,97164.88
2023-01-07T03:52:37.437Z,97161.47
2023-01-07T03:55:04.917Z,97162.44
2023-01-07T03:57:32.545Z,97157.34
2023-01-07T03:59:59.513Z,97151.41
2023-01-07T04:02:26.566Z,97157.28
2023-01-07T04:04:53.143Z,97156.44
2023-01-07T04:07:19.556Z,97151.34
2023-01-07T04:09:47.232Z,97148.84
2023-01-07T04:12:14.219Z,97153.88
2023-01-07T04:14:40.567Z,97140.94
2023-01-07T04:17:06.937Z,97144.41
2023-01-07T04:19:33.418Z,97143.44
2023-01-07T04:21:59.821Z,97136.59
2023-01-07T04:24:26.353Z,97139.16
2023-01-07T04:26:52.769Z,97134.91
2023-01-07T04:29:20.937Z,97140.03
2023-01-07T04:31:47.475Z,97133.97
2023-01-07T04:34:13.867Z,97134.06
2023-01-07T04:36:40.306Z,97135.78
2023-01-07T04:39:06.846Z,97133.25
2023-01-07T04:41:33.250Z,97133.25
2023-01-07T04:43:59.778Z,97120.50
2023-01-07T04:46:26.265Z,97117.09
2023-01-07T04:48:52.725Z,97122.16
2023-01-07T04:51:20.282Z,97117.00
2023-01-07T04:53:47.368Z,97126.34
2023-01-07T04:56:13.873Z,97128.03
2023-01-07T04:58:40.689Z,97113.59
2023-01-07T05:01:07.285Z,97108.50
2023-01-07T05:03:36.594Z,97111.06
2023-01-07T05:06:03.991Z,97105.94
2023-01-07T05:08:30.548Z,97094.09
2023-01-07T05:10:56.941Z,97100.84
2023-01-07T05:13:23.999Z,97102.56
2023-01-07T05:15:50.789Z,97095.78
2023-01-07T05:18:17.435Z,97095.72
2023-01-07T05:20:43.824Z,97094.00
2023-01-07T05:23:10.257Z,97102.50
2023-01-07T05:25:36.623Z,97091.41
2023-01-07T05:28:03.036Z,97089.75
2023-01-07T05:30:29.645Z,97085.50
2023-01-07T05:32:56.059Z,97078.75
2023-01-07T05:35:22.718Z,97075.31
2023-01-07T05:37:49.125Z,97074.53
2023-01-07T05:40:15.657Z,97075.41
2023-01-07T05:42:42.185Z,97061.75
2023-01-07T05:45:08.855Z,97066.91
2023-01-07T05:47:35.425Z,97067.75
2023-01-07T05:50:01.811Z,97066.88
2023-01-07T05:52:28.329Z,97058.34
2023-01-07T05:54:54.861Z,97057.44
2023-01-07T05:57:21.336Z,97060.88
2023-01-07T05:59:47.703Z,97052.34
2023-01-07T06:02:14.076Z,97054.94
2023-01-07T06:04:40.514Z,97059.16
2023-01-07T06:07:06.961Z,97051.50
2023-01-07T06:09:33.413Z,97053.19
2023-01-07T06:11:59.789Z,97056.59
2023-01-07T06:14:26.220Z,97065.91
2023-01-07T06:16:52.676Z,97059.91
2023-01-07T06:19:19.377Z,97051.47
2023-01-07T06:21:45.804Z,97058.28
2023-01-07T06:24:12.211Z,97051.41
2023-01-07T06:26:38.632Z,97054.00
2023-01-07T06:29:05.060Z,97056.56
2023-01-07T06:31:31.651Z,97050.56
2023-01-07T06:33:58.164Z,97042.91
2023-01-07T06:36:24.602Z,97048.06
2023-01-07T06:38:50.928Z,97046.38
2023-01-07T06:41:17.317Z,97040.31
2023-01-07T06:43:43.703Z,97047.22
2023-01-07T06:46:10.311Z,97040.41
2023-01-07T06:48:36.718Z,97036.19
2023-01-07T06:51:03.334Z,97031.91
2023-01-07T06:53:29.715Z,97028.50
2023-01-07T06:55:56.067Z,97027.63
2023-01-07T06:58:22.477Z,97027.72
2023-01-07T07:00:48.876Z,97030.19
2023-01-07T07:03:15.298Z,97034.34
2023-01-07T07:05:41.858Z,97034.41
2023-01-07T07:08:08.409Z,97031.00
2023-01-07T07:10:35.607Z,97031.84
2023-01-07T07:13:02.025Z,97035.28
2023-01-07T07:15:28.546Z,97027.63
2023-01-07T07:17:54.972Z,97024.31
2023-01-07T07:20:21.636Z,97033.75
2023-01-07T07:22:48.516Z,97026.91
2023-01-07T07:25:15.147Z,97028.66
2023-01-07T07:27:45.201Z,97030.41
2023-01-07T07:30:12.840Z,97020.16
2023-01-07T07:32:39.232Z,97017.69
2023-01-07T07:35:05.967Z,97021.06
2023-01-07T07:37:32.318Z,97017.84
2023-01-07T07:39:58.763Z,97025.41
2023-01-07T07:42:25.160Z,97019.56
2023-01-07T07:44:51.682Z,97015.28
2023-01-07T07:47:18.346Z,97011.00
2023-01-07T07:49:44.817Z,97011.00
2023-01-07T07:52:11.262Z,97018.75
2023-01-07T07:54:37.620Z,97006.81
2023-01-07T07:57:04.206Z,97011.03
2023-01-07T07:59:30.765Z,97005.91
2023-01-07T08:01:57.502Z,97001.72
2023-01-07T08:04:25.490Z,96995.78
2023-01-07T08:06:51.922Z,96993.22
2023-01-07T08:09:18.368Z,96995.81
2023-01-07T08:11:44.837Z,96997.53
2023-01-07T08:14:11.306Z,96990.78
2023-01-07T08:16:38.775Z,96990.72
2023-01-07T08:19:05.796Z,96998.41
2023-01-07T08:21:32.238Z,96989.03
2023-01-07T08:23:58.683Z,96988.22
2023-01-07T08:26:25.118Z,96990.81
2023-01-07T08:28:51.654Z,96990.00
2023-01-07T08:31:18.168Z,96982.44
2023-01-07T08:33:45.651Z,96985.94
2023-01-07T08:36:22.456Z,96974.91
2023-01-07T08:38:53.660Z,96979.19
2023-01-07T08:41:21.666Z,96974.09
2023-01-07T08:43:48.059Z,96978.41
2023-01-07T08:46:14.567Z,96960.53
2023-01-07T08:48:41.078Z,96969.84
2023-01-07T08:51:08.029Z,96963.13
2023-01-07T08:53:34.749Z,96964.03
2023-01-07T08:56:01.234Z,96958.94
2023-01-07T08:58:27.716Z,96963.22
2023-01-07T09:00:54.273Z,96956.44
2023-01-07T09:03:20.757Z,96953.06
2023-01-07T09:05:47.228Z,96954.06
2023-01-07T09:08:13.640Z,96951.63
2023-01-07T09:10:40.097Z,96950.78
2023-01-07T09:13:06.710Z,96940.59
2023-01-07T09:15:33.058Z,96938.13
2023-01-07T09:17:59.470Z,96940.72
2023-01-07T09:20:25.935Z,96933.88
2023-01-07T09:22:52.271Z,96933.06
2023-01-07T09:25:18.641Z,96936.47
2023-01-07T09:27:45.729Z,96938.25
2023-01-07T09:30:12.691Z,96941.69
2023-01-07T09:32:39.355Z,96942.56
2023-01-07T09:35:06.446Z,96933.34
2023-01-07T09:37:32.833Z,96939.34
2023-01-07T09:40:01.066Z,96926.63
2023-01-07T09:42:55.405Z,96925.03
2023-01-07T09:45:27.127Z,96919.16
2023-01-07T09:47:56.517Z,96921.78
2023-01-07T09:50:46.605Z,96923.59
2023-01-07T09:53:27.387Z,96919.44
2023-01-07T09:56:11.293Z,96915.31
2023-01-07T09:58:44.787Z,96913.72
2023-01-07T10:01:39.335Z,96907.09
2023-01-07T10:04:15.127Z,96908.84
2023-01-07T10:07:09.924Z,96901.22
2023-01-07T10:09:43.190Z,96901.38
2023-01-07T10:12:22.314Z,96902.28
2023-01-07T10:15:05.376Z,96895.59
2023-01-07T10:17:48.003Z,96892.22
2023-01-07T10:20:14.257Z,96890.41
2023-01-07T10:22:51.438Z,96877.63
2023-01-07T10:25:26.209Z,96879.31
2023-01-07T10:27:54.741Z,96875.06
2023-01-07T10:30:29.379Z,96870.75
2023-01-07T10:33:15.255Z,96871.56
2023-01-07T10:35:41.777Z,96871.53
2023-01-07T10:38:18.036Z,96868.09
2023-01-07T10:40:52.214Z,96866.44
2023-01-07T10:43:30.596Z,96859.75
2023-01-07T10:46:03.090Z,96858.13
2023-01-07T10:48:44.792Z,96851.38
2023-01-07T10:51:24.520Z,96850.69
2023-01-07T10:54:28.569Z,96848.47
2023-01-07T10:57:01.125Z,96849.47
2023-01-07T10:59:27.636Z,96839.47
2023-01-07T11:01:57.632Z,96837.84
2023-01-07T11:04:25.015Z,96835.28
2023-01-07T11:06:59.753Z,96820.69
2023-01-07T11:09:32.277Z,96823.19
2023-01-07T11:12:17.337Z,96817.28
2023-01-07T11:14:44.435Z,96807.03
2023-01-07T11:17:28.767Z,96803.75
2023-01-07T11:19:56.367Z,96803.81
2023-01-07T11:22:25.505Z,96796.16
2023-01-07T11:24:53.221Z,96795.25
2023-01-07T11:27:21.763Z,96785.88
2023-01-07T11:30:04.160Z,96788.41
2023-01-07T11:32:38.217Z,96772.22
2023-01-07T11:35:08.033Z,96777.34
2023-01-07T11:37:40.203Z,96771.41
2023-01-07T11:40:12.844Z,96766.31
2023-01-07T11:43:04.021Z,96764.59
2023-01-07T11:45:48.155Z,96763.78
2023-01-07T11:48:37.519Z,96762.97
2023-01-07T11:51:05.807Z,96751.91
2023-01-07T11:53:37.935Z,96740.13
2023-01-07T11:56:23.230Z,96743.63
2023-01-07T11:58:52.523Z,96739.44
2023-01-07T12:01:23.383Z,96729.28
2023-01-07T12:03:53.171Z,96717.41
2023-01-07T12:06:30.476Z,96716.66
2023-01-07T12:09:16.587Z,96708.97
2023-01-07T12:11:45.101Z,96703.81
2023-01-07T12:14:26.829Z,96703.84
2023-01-07T12:16:55.009Z,96703.03
2023-01-07T12:19:37.793Z,96709.91
2023-01-07T12:22:12.455Z,96699.75
2023-01-07T12:25:04.252Z,96697.28
2023-01-07T12:28:06.326Z,96694.84
2023-01-07T12:31:03.719Z,96685.44
2023-01-07T12:34:15.923Z,96685.44
2023-01-07T12:36:51.990Z,96684.47
2023-01-07T12:39:27.448Z,96678.47
2023-01-07T12:42:28.873Z,96679.31
2023-01-07T12:45:03.955Z,96672.47
2023-01-07T12:47:39.211Z,96678.44
2023-01-07T12:50:14.032Z,96664.81
2023-01-07T12:52:52.374Z,96665.66
2023-01-07T12:55:25.527Z,96656.31
2023-01-07T12:57:57.055Z,96646.03
2023-01-07T13:00:30.538Z,96644.34
2023-01-07T13:03:19.408Z,96636.69
2023-01-07T13:05:54.233Z,96633.28
2023-01-07T13:08:30.900Z,96631.63
2023-01-07T13:11:03.483Z,96627.38
2023-01-07T13:13:37.609Z,96627.34
2023-01-07T13:16:05.527Z,96628.25
2023-01-07T13:18:31.964Z,96633.38
2023-01-07T13:21:13.316Z,96629.16
2023-01-07T13:23:55.024Z,96628.28
2023-01-07T13:26:40.543Z,96630.06
2023-01-07T13:29:24.991Z,96630.09
2023-01-07T13:32:09.140Z,96631.81
2023-01-07T13:34:50.725Z,96629.25
2023-01-07T13:37:44.487Z,96631.81
2023-01-07T13:40:46.276Z,96628.41
2023-01-07T13:43:48.181Z,96632.63
2023-01-07T13:46:20.791Z,96624.88
2023-01-07T13:48:50.580Z,96624.84
2023-01-07T13:51:29.624Z,96626.53
2023-01-07T13:53:56.023Z,96627.34
2023-01-07T13:56:22.583Z,96620.50
2023-01-07T13:58:49.635Z,96624.75
2023-01-07T14:01:18.103Z,96622.19
2023-01-07T14:03:53.079Z,96623.13
2023-01-07T14:06:19.603Z,96619.72
2023-01-07T14:08:50.562Z,96619.72
2023-01-07T14:11:41.862Z,96618.03
2023-01-07T14:14:39.410Z,96621.41
2023-01-07T14:17:35.127Z,96620.50
2023-01-07T14:20:18.348Z,96615.38
2023-01-07T14:23:26.154Z,96615.34
2023-01-07T14:26:22.429Z,96622.91
2023-01-07T14:29:26.915Z,96619.50
2023-01-07T14:32:31.964Z,96612.63
2023-01-07T14:35:03.361Z,96610.91
2023-01-07T14:37:36.007Z,96615.97
2023-01-07T14:40:29.070Z,96611.69
2023-01-07T14:43:03.358Z,96618.50
2023-01-07T14:45:41.930Z,96615.91
2023-01-07T14:48:08.435Z,96610.88
2023-01-07T14:50:47.048Z,96603.19
2023-01-07T14:53:16.158Z,96607.47
2023-01-07T14:56:00.968Z,96605.75
2023-01-07T14:58:39.401Z,96603.22
2023-01-07T15:01:25.328Z,96610.78
2023-01-07T15:04:17.206Z,96599.69
2023-01-07T15:06:45.272Z,96587.63
2023-01-07T15:09:41.436Z,96597.91
2023-01-07T15:12:37.177Z,96592.75
2023-01-07T15:15:31.137Z,96589.28
2023-01-07T15:17:58.338Z,96584.94
2023-01-07T15:20:38.038Z,96590.00
2023-01-07T15:23:15.269Z,96592.47
2023-01-07T15:25:56.613Z,96584.75
2023-01-07T15:28:34.881Z,96589.78
2023-01-07T15:31:13.450Z,96594.69
2023-01-07T15:33:56.025Z,96592.09
2023-01-07T15:36:22.721Z,96580.09
2023-01-07T15:38:52.859Z,96584.41
2023-01-07T15:41:32.798Z,96584.38
2023-01-07T15:44:02.472Z,96590.31
2023-01-07T15:46:30.759Z,96591.16
2023-01-07T15:49:24.575Z,96590.25
2023-01-07T15:51:56.921Z,96594.47
2023-01-07T15:54:38.133Z,96586.84
2023-01-07T15:57:14.712Z,96594.47
2023-01-07T15:59:51.551Z,96602.91
2023-01-07T16:02:22.138Z,96603.69
2023-01-07T16:04:52.648Z,96601.06
2023-01-07T16:07:34.753Z,96606.13
2023-01-07T16:10:01.438Z,96600.88
2023-01-07T16:12:33.981Z,96588.97
2023-01-07T16:15:02.470Z,96590.66
2023-01-07T16:17:29.935Z,96599.19
2023-01-07T16:20:19.570Z,96598.22
2023-01-07T16:22:46.110Z,96598.16
2023-01-07T16:25:21.652Z,96595.59
2023-01-07T16:27:48.423Z,96596.34
2023-01-07T16:30:16.072Z,96593.75
2023-01-07T16:32:45.269Z,96583.47
2023-01-07T16:35:19.309Z,96582.63
2023-01-07T16:37:47.791Z,96587.59
2023-01-07T16:40:26.110Z,96581.56
2023-01-07T16:42:52.720Z,96582.28
2023-01-07T16:45:29.052Z,96585.66
2023-01-07T16:48:19.884Z,96591.59
2023-01-07T16:50:47.315Z,96578.81
2023-01-07T16:53:29.340Z,96569.41
2023-01-07T16:56:15.766Z,96570.09
2023-01-07T16:58:49.825Z,96571.78
2023-01-07T17:01:21.240Z,96566.63
2023-01-07T17:03:59.462Z,96571.69
2023-01-07T17:06:36.906Z,96572.44
2023-01-07T17:09:03.774Z,96558.69
2023-01-07T17:11:37.282Z,96573.16
2023-01-07T17:14:03.808Z,96573.16
2023-01-07T17:16:32.480Z,96576.50
2023-01-07T17:19:22.966Z,96571.41
2023-01-07T17:21:49.359Z,96562.94
2023-01-07T17:24:29.396Z,96561.19
2023-01-07T17:27:00.450Z,96565.38
2023-01-07T17:29:34.552Z,96565.38
2023-01-07T17:32:01.135Z,96561.00
2023-01-07T17:34:27.657Z,96566.13
2023-01-07T17:36:54.046Z,96573.75
2023-01-07T17:39:20.510Z,96572.00
2023-01-07T17:42:05.564Z,96564.31
2023-01-07T17:44:32.916Z,96574.44
2023-01-07T17:46:59.454Z,96576.13
2023-01-07T17:49:25.953Z,96576.88
2023-01-07T17:51:54.605Z,96578.56
2023-01-07T17:54:24.526Z,96576.78
2023-01-07T17:56:51.976Z,96585.22
2023-01-07T17:59:22.013Z,96583.44
2023-01-07T18:01:50.668Z,96585.88
2023-01-07T18:04:18.067Z,96584.94
2023-01-07T18:06:44.804Z,96583.25
2023-01-07T18:09:13.396Z,96580.63
2023-01-07T18:12:01.984Z,96585.72
2023-01-07T18:14:28.466Z,96576.31
2023-01-07T18:16:55.213Z,96571.09
2023-01-07T18:19:21.863Z,96571.91
2023-01-07T18:21:48.326Z,96571.84
2023-01-07T18:24:17.803Z,96565.91
2023-01-07T18:26:44.276Z,96563.31
2023-01-07T18:29:12.017Z,96574.28
2023-01-07T18:31:43.678Z,96557.31
2023-01-07T18:34:11.765Z,96568.31
2023-01-07T18:36:38.268Z,96570.75
2023-01-07T18:39:09.849Z,96573.25
2023-01-07T18:41:39.006Z,96587.66
2023-01-07T18:44:05.569Z,96582.56
2023-01-07T18:46:31.919Z,96573.22
2023-01-07T18:48:59.772Z,96571.50
2023-01-07T18:51:26.229Z,96563.81
2023-01-07T18:53:52.743Z,96563.91
2023-01-07T18:56:19.213Z,96557.13
2023-01-07T18:58:45.657Z,96565.63
2023-01-07T19:01:12.206Z,96563.13
2023-01-07T19:03:38.889Z,96572.34
2023-01-07T19:06:09.940Z,96575.75
2023-01-07T19:08:36.868Z,96574.84
2023-01-07T19:11:12.494Z,96577.41
2023-01-07T19:13:39.284Z,96574.78
2023-01-07T19:16:07.782Z,96579.03
2023-01-07T19:18:35.500Z,96577.28
2023-01-07T19:21:06.831Z,96570.34
2023-01-07T19:23:33.673Z,96571.28
2023-01-07T19:26:08.298Z,96574.56
2023-01-07T19:28:35.266Z,96577.06
2023-01-07T19:31:06.180Z,96582.06
2023-01-07T19:33:34.625Z,96579.53
2023-01-07T19:36:02.888Z,96587.06
2023-01-07T19:38:29.824Z,96587.88
2023-01-07T19:40:56.264Z,96585.25
2023-01-07T19:43:22.649Z,96592.09
2023-01-07T19:45:56.718Z,96591.13
2023-01-07T19:48:23.548Z,96594.56
2023-01-07T19:50:55.068Z,96594.69
2023-01-07T19:53:21.966Z,96597.25
2023-01-07T19:55:48.416Z,96587.75
2023-01-07T19:58:14.882Z,96596.19
2023-01-07T20:00:41.348Z,96595.31
2023-01-07T20:03:07.838Z,96587.53
2023-01-07T20:05:34.384Z,96581.50
2023-01-07T20:08:00.799Z,96575.44
2023-01-07T20:10:27.241Z,96575.38
2023-01-07T20:12:53.651Z,96572.81
2023-01-07T20:15:20.310Z,96567.75
2023-01-07T20:17:46.778Z,96569.44
2023-01-07T20:20:13.233Z,96574.38
2023-01-07T20:22:39.827Z,96570.84
2023-01-07T20:25:07.661Z,96568.25
2023-01-07T20:27:37.135Z,96568.19
2023-01-07T20:30:08.388Z,96563.09
2023-01-07T20:32:34.870Z,96552.84
2023-01-07T20:35:01.322Z,96548.47
2023-01-07T20:37:35.603Z,96551.88
2023-01-07T20:40:02.057Z,96555.97
2023-01-07T20:42:29.982Z,96561.00
2023-01-07T20:45:02.476Z,96560.03
2023-01-07T20:47:29.061Z,96558.31
2023-01-07T20:49:58.106Z,96556.53
2023-01-07T20:52:27.919Z,96557.19
2023-01-07T20:54:57.041Z,96550.31
2023-01-07T20:57:24.529Z,96545.09
2023-01-07T20:59:57.817Z,96545.78
2023-01-07T21:02:24.922Z,96544.75
2023-01-07T21:04:53.800Z,96540.53
2023-01-07T21:07:20.338Z,96548.00
2023-01-07T21:09:46.795Z,96532.63
2023-01-07T21:12:13.192Z,96526.50
2023-01-07T21:14:39.648Z,96531.44
2023-01-07T21:17:06.189Z,96517.06
2023-01-07T21:19:32.644Z,96526.09
2023-01-07T21:22:00.346Z,96517.91
2023-01-07T21:24:26.857Z,96528.16
2023-01-07T21:26:53.223Z,96522.31
2023-01-07T21:29:19.693Z,96522.28
2023-01-07T21:31:46.372Z,96525.66
2023-01-07T21:34:12.915Z,96525.56
2023-01-07T21:36:40.036Z,96521.34
2023-01-07T21:39:06.520Z,96518.66
2023-01-07T21:41:32.859Z,96513.59
2023-01-07T21:43:59.245Z,96508.47
2023-01-07T21:46:26.009Z,96515.16
2023-01-07T21:48:52.471Z,96512.50
2023-01-07T21:51:25.846Z,96510.75
2023-01-07T21:53:57.993Z,96507.50
2023-01-07T21:56:26.997Z,96520.19
2023-01-07T21:58:53.430Z,96516.78
2023-01-07T22:01:20.081Z,96515.91
2023-01-07T22:03:49.233Z,96500.47
2023-01-07T22:06:20.822Z,96509.00
2023-01-07T22:08:47.892Z,96511.44
2023-01-07T22:11:16.784Z,96503.25
2023-01-07T22:13:43.510Z,96509.13
2023-01-07T22:16:10.143Z,96509.97
2023-01-07T22:18:36.606Z,96504.78
2023-01-07T22:21:03.018Z,96510.59
2023-01-07T22:23:29.522Z,96499.63
2023-01-07T22:26:02.165Z,96502.00
2023-01-07T22:28:31.918Z,96506.31
2023-01-07T22:30:59.814Z,96509.69
2023-01-07T22:33:26.152Z,96515.63
2023-01-07T22:35:53.377Z,96509.59
2023-01-07T22:38:23.185Z,96513.00
2023-01-07T22:40:49.897Z,96511.25
2023-01-07T22:43:19.369Z,96520.59
2023-01-07T22:46:00.972Z,96515.34
2023-01-07T22:48:31.578Z,96514.47
2023-01-07T22:51:02.626Z,96516.97
2023-01-07T22:53:29.966Z,96517.81
2023-01-07T22:55:57.713Z,96509.38
2023-01-07T22:58:24.068Z,96507.63
2023-01-07T23:00:50.530Z,96506.78
2023-01-07T23:03:17.797Z,96506.78
2023-01-07T23:05:44.287Z,96504.13
2023-01-07T23:08:11.168Z,96499.88
2023-01-07T23:10:38.727Z,96488.88
2023-01-07T23:13:06.439Z,96486.66
2023-01-07T23:15:37.106Z,96477.41
2023-01-07T23:18:05.523Z,96485.75
2023-01-07T23:20:34.117Z,96485.59
2023-01-07T23:23:03.355Z,96488.88
2023-01-07T23:25:29.715Z,96489.63
2023-01-07T23:27:56.282Z,96487.78
2023-01-07T23:30:22.726Z,96479.94
2023-01-07T23:32:49.134Z,96471.38
2023-01-07T23:35:15.599Z,96478.09
2023-01-07T23:37:42.131Z,96470.69
2023-01-07T23:40:09.210Z,96469.72
2023-01-07T23:42:35.936Z,96468.84
2023-01-07T23:45:04.032Z,96462.06
2023-01-07T23:47:30.368Z,96452.63
2023-01-07T23:49:56.822Z,96448.41
2023-01-07T23:52:23.220Z,96444.22
2023-01-07T23:54:49.673Z,96440.78
2023-01-07T23:57:16.037Z,96436.47
2023-01-07T23:59:43.782Z,96441.34
